DTTALICT

Guest
Details From DTTA - CARTHAGE
To LICT - TRAPANI BIRGI
Flight Number -
Tags generated
Created
Modified
Stats Distance 126 nm / 233 km
Max Altitude 4,400 ft / 1,341 m
Waypoints 3
Social Downloads 2
Likes 0
Share VATSIM

Download

Looking for another format? Having issues loading an existing format? Contact us
Advertisement - Login to hide

Notes

Basic altitude profile: - Ascent Rate: 1500ft/min - Ascent Speed: 250kts - Cruise Altitude: 35000ft - Cruise Speed: 420kts - Descent Rate: 1500ft/min - Descent Speed: 250kts Options: - Use NATs: yes - Use PACOTS: yes - Use low airways: yes - Use high airways: no

Route

DTTA LOPKO LICT

ID Type Via Altitude Latitude Longitude Leg Dist Tot Dist Heading (true) Name
O DTTA APT - 0 ft / 0 m 36.85127˚ 10.23003˚ - 0 nm - CARTHAGE
LOPKO FIX - 4,400 ft / 1,341 m 37.66611˚ 12.18028˚ 105 nm 105 nm 62° / 63° -
O LICT APT - 0 ft / 0 m 37.91142˚ 12.48794˚ 20 nm 126 nm 45° / 45° TRAPANI BIRGI

Altitude Profile

Advertisement - Login to hide

DTTA

Details ICAO DTTA (TUN)
Name CARTHAGE
Region Tunisia
Timezone Africa/Tunis (UTC+1.0)
Stats Elevation 22 ft / 7 m (AMSL)
Location 36.851267° 10.230027°
Runways 2
Magnetic Variation 2.403° E

METAR

DTTA 140430Z 20008KT 9999 SCT023 10/06 Q1023 NOSIG

Decode

TAF

TAF DTTA 132300Z 1400/1424 22012KT 9999 SCT023= TAF DTTJ 132300Z 1400/1424 18010KT CAVOK BECMG 1418/1420 23015KT

Decode

Departure Runways

ID Width Length Bearing (true) Bearing (mag) Surface Threshold Offset Overrun Length
01 148 ft / 45 m 10,502 ft / 3,201 m 12.29° 9.89° Asphalt 0 ft / 0 m 197 ft / 60 m
11 148 ft / 45 m 9,345 ft / 2,848 m 112.55° 110.15° Asphalt 0 ft / 0 m 643 ft / 196 m
19 148 ft / 45 m 10,502 ft / 3,201 m 192.29° 189.89° Asphalt 0 ft / 0 m 197 ft / 60 m
29 148 ft / 45 m 9,345 ft / 2,848 m 292.57° 290.17° Asphalt 657 ft / 200 m 197 ft / 60 m

LICT

Details ICAO LICT (TPS)
Name TRAPANI BIRGI
Region Italy
Timezone Europe/Rome (UTC+1.0)
Stats Elevation 24 ft / 7 m (AMSL)
Location 37.911417° 12.487937°
Runways 1
Magnetic Variation 2.835° E

METAR

LICT 140355Z 27011KT 9999 SCT030 12/08 Q1022

Decode

TAF

Not found

Destination Runways

ID Width Length Bearing (true) Bearing (mag) Surface Threshold Offset Overrun Length
13 148 ft / 45 m 8,827 ft / 2,691 m 127.75° 124.91° Asphalt 0 ft / 0 m 1,171 ft / 357 m
31 148 ft / 45 m 8,827 ft / 2,691 m 307.76° 304.92° Asphalt 820 ft / 250 m 983 ft / 300 m

Approach Navaids

Runway Type Ident Frequency Range Bearing (true) Bearing (mag) Slope Elevation
31 Localiser TRA 110.95 MHz 18 nm / 33 km 307.75° 304.91° - 13 ft / 4 m (AMSL)
31 Glidescope TRA 110.95 MHz 10 nm / 19 km 307.75° 304.92° 3.00° 61 ft / 19 m (AMSL)
31 DME TRA 110.95 MHz 18 nm / 33 km - - - 7 ft / 2 m (AMSL)

Popular Alternatives